Time;durP1;ratioP1;P1;durP2;ratioP2;P2;SDS_P1;SDS_P2;PMS_P1;PMS_P2;Temp;Humidity;BMP_temperature;BMP_pressure;BME280_temperature;BME280_humidity;BME280_pressure;Samples;Min_cycle;Max_cycle;Signal;HPM_P1;HPM_P2
2022/05/26 00:00:10;;;;;;;13.63;3.20;;;14.90;79.90;;;;;;5046801;28;20091;-94
2022/05/26 00:02:37;;;;;;;13.57;3.35;;;14.90;79.90;;;;;;5053923;28;20041;-92
2022/05/26 00:05:05;;;;;;;12.65;3.50;;;14.90;79.90;;;;;;5053762;28;20049;-93
2022/05/26 00:07:32;;;;;;;12.30;3.35;;;14.90;79.90;;;;;;5035758;28;20050;-92
2022/05/26 00:09:59;;;;;;;17.52;2.95;;;15.00;79.90;;;;;;5033947;28;20228;-93
2022/05/26 00:12:26;;;;;;;10.23;2.92;;;14.90;79.90;;;;;;5050792;28;20052;-92
2022/05/26 00:14:53;;;;;;;13.18;2.97;;;14.90;79.90;;;;;;5053441;28;20052;-92
2022/05/26 00:17:21;;;;;;;13.80;2.97;;;14.90;79.90;;;;;;5052885;28;20159;-93
2022/05/26 00:19:48;;;;;;;14.65;3.10;;;14.90;79.90;;;;;;5052146;28;20107;-92
2022/05/26 00:22:15;;;;;;;15.20;3.15;;;14.90;79.90;;;;;;5053553;28;20426;-92
2022/05/26 00:24:42;;;;;;;18.00;3.03;;;14.90;79.90;;;;;;5053662;28;20090;-94
2022/05/26 00:27:10;;;;;;;16.10;3.28;;;14.90;79.90;;;;;;5052735;28;20053;-93
2022/05/26 00:29:37;;;;;;;14.20;3.42;;;14.90;79.90;;;;;;5052983;28;20048;-93
2022/05/26 00:32:05;;;;;;;14.95;3.53;;;14.90;79.90;;;;;;5052920;28;20052;-93
2022/05/26 00:34:32;;;;;;;18.60;3.40;;;14.90;79.90;;;;;;5052051;28;20053;-90
2022/05/26 00:36:59;;;;;;;16.55;3.70;;;14.90;79.90;;;;;;5052912;28;20557;-91
2022/05/26 00:39:26;;;;;;;11.55;2.85;;;14.90;79.90;;;;;;5043836;28;20049;-94
2022/05/26 00:41:56;;;;;;;16.10;3.75;;;14.90;80.00;;;;;;5040856;28;20050;-92
2022/05/26 00:44:23;;;;;;;18.80;4.55;;;14.90;79.90;;;;;;5041171;28;20052;-91
2022/05/26 00:47:02;;;;;;;18.05;3.63;;;14.90;79.90;;;;;;5052082;28;20053;-92
2022/05/26 00:49:57;;;;;;;12.52;4.05;;;14.90;80.00;;;;;;5035700;28;20054;-91
2022/05/26 00:52:28;;;;;;;;;;;14.90;79.90;;;;;;5052786;28;20481;-90
2022/05/26 00:55:01;;;;;;;17.23;4.18;;;14.90;79.90;;;;;;5038968;28;19929;-92
2022/05/26 00:57:34;;;;;;;22.58;3.63;;;14.80;79.90;;;;;;5049591;28;20049;-91
2022/05/26 01:00:06;;;;;;;16.33;4.00;;;14.90;80.00;;;;;;5051803;28;20111;-90
2022/05/26 01:02:38;;;;;;;13.82;3.47;;;14.90;80.00;;;;;;5050209;28;20046;-91
2022/05/26 01:05:14;;;;;;;16.80;3.45;;;14.90;80.00;;;;;;5038352;28;20462;-91
2022/05/26 01:07:41;;;;;;;15.98;3.60;;;14.80;80.00;;;;;;5051905;28;20053;-92
2022/05/26 01:10:12;;;;;;;13.45;3.30;;;14.90;80.00;;;;;;5037735;28;20053;-92
2022/05/26 01:12:39;;;;;;;15.23;3.42;;;14.80;80.10;;;;;;5050803;28;20048;-92
2022/05/26 01:15:29;;;;;;;12.75;3.50;;;14.80;80.10;;;;;;5052179;28;20040;-92
2022/05/26 01:17:56;;;;;;;14.90;3.53;;;14.80;80.10;;;;;;5050992;28;20114;-92
2022/05/26 01:20:59;;;;;;;13.73;3.80;;;14.80;80.10;;;;;;5051947;28;20049;-91
2022/05/26 01:23:57;;;;;;;18.00;3.75;;;14.80;80.10;;;;;;5019001;28;20558;-91
2022/05/26 01:27:04;;;;;;;18.15;3.80;;;14.90;80.10;;;;;;5040924;28;20041;-90
2022/05/26 01:29:43;;;;;;;20.02;3.78;;;14.80;80.10;;;;;;4934004;29;20098;-91
2022/05/26 01:32:21;;;;;;;18.13;3.85;;;14.90;80.10;;;;;;4935726;29;21931;-91
2022/05/26 01:34:54;;;;;;;17.02;3.60;;;14.80;80.10;;;;;;4920994;29;20570;-91
2022/05/26 01:37:24;;;;;;;15.32;3.50;;;14.80;80.10;;;;;;4936839;29;20111;-91
2022/05/26 01:40:10;;;;;;;13.45;3.33;;;14.80;80.10;;;;;;4936227;29;20106;-90
2022/05/26 01:43:02;;;;;;;17.83;3.60;;;14.80;80.10;;;;;;4935835;29;20055;-91
2022/05/26 01:45:41;;;;;;;20.88;4.53;;;14.80;80.10;;;;;;4935566;29;20135;-90
2022/05/26 01:48:28;;;;;;;19.67;4.32;;;14.80;80.10;;;;;;4935839;29;20569;-91
2022/05/26 01:51:25;;;;;;;17.83;3.95;;;14.80;80.10;;;;;;4935672;29;20134;-90
2022/05/26 01:54:02;;;;;;;15.80;3.60;;;14.80;80.10;;;;;;4935688;29;20047;-91
2022/05/26 01:56:46;;;;;;;19.33;3.75;;;14.80;80.10;;;;;;4935784;29;20498;-91
2022/05/26 01:59:16;;;;;;;;;;;14.80;80.10;;;;;;4936130;29;20047;-90
2022/05/26 02:01:52;;;;;;;17.42;4.03;;;14.80;80.10;;;;;;4935498;29;19927;-91
2022/05/26 02:04:26;;;;;;;21.05;4.75;;;14.80;80.10;;;;;;4932556;29;20048;-91
2022/05/26 02:06:59;;;;;;;22.43;3.70;;;14.80;80.20;;;;;;5011087;28;20068;-90
2022/05/26 02:09:29;;;;;;;18.77;3.85;;;14.70;80.10;;;;;;5054623;28;20098;-90
2022/05/26 02:12:03;;;;;;;17.50;4.07;;;14.80;80.20;;;;;;5049690;28;20565;-90
2022/05/26 02:14:35;;;;;;;;;;;14.70;80.10;;;;;;5043734;28;20041;-88
2022/05/26 02:17:26;;;;;;;24.27;4.65;;;14.70;80.10;;;;;;5040381;28;19924;-90
2022/05/26 02:20:03;;;;;;;16.52;4.25;;;14.70;80.10;;;;;;5039074;28;20049;-90
2022/05/26 02:22:36;;;;;;;19.17;4.50;;;14.70;80.10;;;;;;5038882;28;20466;-90
2022/05/26 02:25:11;;;;;;;20.58;4.55;;;14.70;80.20;;;;;;5053538;28;20045;-92
2022/05/26 02:27:38;;;;;;;17.40;4.70;;;14.70;80.20;;;;;;5054383;28;20507;-92
2022/05/26 02:30:07;;;;;;;20.00;4.10;;;14.70;80.20;;;;;;5054073;28;20115;-91
2022/05/26 02:32:37;;;;;;;23.10;4.68;;;14.70;80.20;;;;;;5054252;28;20045;-90
2022/05/26 02:35:11;;;;;;;18.52;4.18;;;14.70;80.20;;;;;;5054240;28;20041;-91
2022/05/26 02:37:39;;;;;;;19.08;4.57;;;14.70;80.20;;;;;;5038190;28;20049;-92
2022/05/26 02:40:08;;;;;;;16.85;4.55;;;14.70;80.20;;;;;;5054507;28;20091;-91
2022/05/26 02:42:47;;;;;;;16.23;4.20;;;14.70;80.20;;;;;;5044222;28;20041;-90
2022/05/26 02:45:20;;;;;;;20.35;4.95;;;14.60;80.20;;;;;;5049420;28;20418;-90
2022/05/26 02:47:54;;;;;;;18.30;4.70;;;14.70;80.20;;;;;;5050753;28;20511;-91
2022/05/26 02:51:20;;;;;;;17.17;3.95;;;14.60;80.20;;;;;;5042966;28;20107;-92
2022/05/26 02:54:09;;;;;;;18.38;4.70;;;14.60;80.20;;;;;;4978140;28;20046;-91
2022/05/26 02:56:41;;;;;;;18.17;4.15;;;14.60;80.20;;;;;;4990791;28;20042;-92
2022/05/26 02:59:22;;;;;;;18.35;4.30;;;14.60;80.20;;;;;;4979158;28;20046;-91
2022/05/26 03:01:57;;;;;;;25.77;5.35;;;14.60;80.30;;;;;;4992904;28;20409;-90
2022/05/26 03:04:39;;;;;;;19.35;4.22;;;14.60;80.30;;;;;;4973933;28;20513;-89
2022/05/26 03:07:14;;;;;;;21.20;4.88;;;14.60;80.30;;;;;;4976860;28;20054;-89
2022/05/26 03:09:42;;;;;;;19.77;4.85;;;14.60;80.30;;;;;;4992203;28;20587;-91
2022/05/26 03:12:27;;;;;;;15.95;4.38;;;14.60;80.30;;;;;;4992172;28;20051;-91
2022/05/26 03:14:54;;;;;;;20.75;4.53;;;14.60;80.30;;;;;;4987776;28;20089;-90
2022/05/26 03:17:22;;;;;;;19.60;4.82;;;14.60;80.30;;;;;;4981067;28;20101;-91
2022/05/26 03:19:49;;;;;;;21.02;4.32;;;14.60;80.30;;;;;;4976829;28;20068;-90
2022/05/26 03:22:17;;;;;;;21.25;4.88;;;14.60;80.30;;;;;;4992907;28;20054;-90
2022/05/26 03:24:44;;;;;;;24.33;4.65;;;14.60;80.30;;;;;;5023466;28;20050;-90
2022/05/26 03:27:12;;;;;;;25.83;4.18;;;14.60;80.30;;;;;;5048453;28;20061;-91
2022/05/26 03:29:39;;;;;;;17.80;4.00;;;14.50;80.30;;;;;;5053225;28;20083;-91
2022/05/26 03:32:07;;;;;;;25.02;5.22;;;14.60;80.30;;;;;;5053452;28;20595;-91
2022/05/26 03:42:52;;;;;;;23.80;4.63;;;14.50;80.30;;;;;;5039737;28;20050;-90
2022/05/26 03:45:22;;;;;;;16.13;3.83;;;14.50;80.30;;;;;;5041561;28;20055;-89
2022/05/26 03:47:50;;;;;;;16.27;3.88;;;14.50;80.30;;;;;;5041360;28;20045;-90
2022/05/26 03:50:18;;;;;;;14.15;3.90;;;14.50;80.40;;;;;;5041143;28;20102;-91
2022/05/26 03:52:44;;;;;;;16.70;4.00;;;14.50;80.40;;;;;;5035958;28;20053;-91
2022/05/26 03:55:11;;;;;;;18.08;4.13;;;14.50;80.40;;;;;;5038265;28;20057;-92
2022/05/26 03:57:38;;;;;;;19.50;4.38;;;14.40;80.40;;;;;;5041011;28;20058;-90
2022/05/26 04:00:06;;;;;;;21.30;4.68;;;14.40;80.40;;;;;;5047194;28;20049;-91
2022/05/26 04:02:35;;;;;;;17.88;3.95;;;14.50;80.40;;;;;;5051252;28;20511;-91
2022/05/26 04:05:02;;;;;;;13.98;3.65;;;14.40;80.40;;;;;;5038629;28;20103;-92
2022/05/26 04:07:29;;;;;;;18.08;3.42;;;14.40;80.40;;;;;;5036772;28;20053;-91
2022/05/26 04:09:56;;;;;;;16.13;3.65;;;14.40;80.40;;;;;;5040193;28;20045;-92
2022/05/26 04:12:23;;;;;;;17.20;3.70;;;14.40;80.40;;;;;;5040839;28;20049;-91
2022/05/26 04:14:50;;;;;;;16.63;3.75;;;14.40;80.40;;;;;;5044857;28;20511;-91
2022/05/26 04:17:17;;;;;;;19.35;4.38;;;14.40;80.40;;;;;;5052337;28;20453;-93
2022/05/26 04:19:44;;;;;;;17.08;4.13;;;14.40;80.40;;;;;;5035821;28;20095;-90
2022/05/26 04:22:18;;;;;;;17.30;3.90;;;14.40;80.40;;;;;;5037844;28;20495;-90
2022/05/26 04:24:47;;;;;;;16.55;3.80;;;14.40;80.40;;;;;;5051912;28;20057;-91
2022/05/26 04:27:16;;;;;;;16.83;3.95;;;14.40;80.40;;;;;;5044919;28;20056;-89
2022/05/26 04:29:43;;;;;;;20.85;4.00;;;14.40;80.40;;;;;;5043601;28;20053;-91
2022/05/26 04:32:10;;;;;;;14.75;3.50;;;14.40;80.40;;;;;;5051936;28;20106;-91
2022/05/26 04:34:38;;;;;;;20.73;3.55;;;14.40;80.50;;;;;;5035995;28;20080;-90
2022/05/26 04:37:06;;;;;;;12.20;3.22;;;14.40;80.40;;;;;;5038379;28;20107;-91
2022/05/26 04:39:33;;;;;;;13.52;3.50;;;14.40;80.50;;;;;;5040454;28;20045;-89
2022/05/26 04:42:03;;;;;;;15.20;3.22;;;14.40;80.50;;;;;;5045956;28;20175;-91
2022/05/26 04:44:42;;;;;;;18.52;3.92;;;14.40;80.40;;;;;;5050865;28;20450;-91
2022/05/26 04:47:09;;;;;;;17.33;3.60;;;14.40;80.40;;;;;;5038710;28;20049;-92
2022/05/26 04:49:37;;;;;;;15.45;3.78;;;14.40;80.40;;;;;;5035735;28;20053;-90
2022/05/26 04:52:06;;;;;;;19.10;3.70;;;14.40;80.40;;;;;;5052300;28;20048;-90
2022/05/26 04:54:35;;;;;;;15.35;3.45;;;14.40;80.40;;;;;;5051070;28;20576;-92
2022/05/26 04:57:04;;;;;;;17.65;3.20;;;14.40;80.40;;;;;;5046130;28;20045;-92
2022/05/26 04:59:31;;;;;;;14.07;4.15;;;14.40;80.40;;;;;;5040079;28;20106;-92
2022/05/26 05:01:59;;;;;;;16.08;3.55;;;14.40;80.40;;;;;;5036962;28;20044;-91
2022/05/26 05:04:27;;;;;;;16.23;3.38;;;14.40;80.40;;;;;;5035791;28;20041;-91
2022/05/26 05:06:55;;;;;;;20.80;4.28;;;14.40;80.50;;;;;;5038625;28;20050;-90
2022/05/26 05:09:23;;;;;;;15.35;3.88;;;14.40;80.50;;;;;;5048001;28;20049;-90
2022/05/26 05:11:50;;;;;;;12.02;2.83;;;14.40;80.50;;;;;;5051472;28;20041;-90
2022/05/26 05:14:18;;;;;;;19.60;3.97;;;14.50;80.50;;;;;;5051586;28;20052;-89
2022/05/26 05:16:46;;;;;;;19.95;3.70;;;14.50;80.50;;;;;;5035642;28;20095;-92
2022/05/26 05:19:17;;;;;;;16.35;4.35;;;14.50;80.50;;;;;;5036635;28;20484;-91
2022/05/26 05:21:52;;;;;;;17.15;3.58;;;14.50;80.50;;;;;;5040151;28;20053;-90
2022/05/26 05:24:32;;;;;;;17.35;3.47;;;14.50;80.50;;;;;;5048012;28;20053;-92
2022/05/26 05:27:05;;;;;;;21.10;4.22;;;14.50;80.60;;;;;;5051581;28;20560;-90
2022/05/26 05:29:37;;;;;;;17.13;3.80;;;14.50;80.60;;;;;;5050091;28;20041;-91
2022/05/26 05:32:24;;;;;;;17.80;3.78;;;14.50;80.60;;;;;;5037587;28;20103;-91
2022/05/26 05:34:57;;;;;;;15.73;3.42;;;14.60;80.60;;;;;;5036130;28;20053;-91
2022/05/26 05:37:24;;;;;;;16.75;4.05;;;14.60;80.50;;;;;;5034843;28;20103;-90
2022/05/26 05:39:51;;;;;;;17.45;3.80;;;14.60;80.50;;;;;;5039710;28;20046;-91
2022/05/26 05:42:18;;;;;;;19.40;4.10;;;14.60;80.50;;;;;;5047915;28;20049;-90
2022/05/26 05:44:45;;;;;;;16.10;3.70;;;14.60;80.50;;;;;;5051228;28;20581;-91
2022/05/26 05:47:12;;;;;;;16.45;3.67;;;14.60;80.50;;;;;;5051328;28;20045;-90
2022/05/26 05:49:39;;;;;;;17.30;3.42;;;14.60;80.50;;;;;;5051550;28;20049;-91
2022/05/26 05:52:12;;;;;;;13.85;3.13;;;14.60;80.50;;;;;;5037327;28;20400;-90
2022/05/26 05:54:39;;;;;;;12.75;3.90;;;14.70;80.50;;;;;;5050473;28;20049;-91
2022/05/26 05:57:07;;;;;;;17.02;3.17;;;14.70;80.40;;;;;;5051287;28;20049;-92
2022/05/26 05:59:33;;;;;;;15.32;4.10;;;14.70;80.40;;;;;;5051166;28;20103;-91
2022/05/26 06:02:01;;;;;;;16.02;3.70;;;14.70;80.30;;;;;;5051139;28;20045;-92
2022/05/26 06:04:48;;;;;;;18.73;4.05;;;14.80;80.30;;;;;;5035358;28;20076;-90
2022/05/26 06:07:19;;;;;;;13.00;3.30;;;14.70;80.30;;;;;;5035859;28;20103;-92
2022/05/26 06:09:47;;;;;;;17.35;3.50;;;14.80;80.30;;;;;;5050528;28;20103;-90
2022/05/26 06:12:16;;;;;;;11.93;3.00;;;14.80;80.20;;;;;;5043329;28;20059;-90
2022/05/26 06:14:43;;;;;;;19.98;3.35;;;14.80;80.20;;;;;;5040122;28;20041;-90
2022/05/26 06:17:11;;;;;;;16.02;3.42;;;14.80;80.10;;;;;;5041213;28;20048;-89
2022/05/26 06:19:39;;;;;;;15.52;3.15;;;14.80;80.10;;;;;;5038245;28;20057;-90
2022/05/26 06:22:14;;;;;;;18.17;3.33;;;14.80;80.10;;;;;;5040503;28;20050;-90
2022/05/26 06:24:41;;;;;;;18.23;3.28;;;14.80;80.00;;;;;;5043051;28;20115;-90
2022/05/26 06:29:58;;;;;;;18.77;3.72;;;14.90;79.90;;;;;;5049614;28;20582;-89
2022/05/26 06:38:00;;;;;;;15.10;3.28;;;14.90;79.80;;;;;;5039519;28;20099;-91
2022/05/26 06:40:31;;;;;;;14.25;3.70;;;14.90;79.80;;;;;;5038661;28;20058;-92
2022/05/26 06:42:59;;;;;;;13.50;3.15;;;14.90;79.70;;;;;;5041672;28;20125;-91
2022/05/26 06:45:26;;;;;;;17.65;3.40;;;14.90;79.70;;;;;;5051480;28;20056;-90
2022/05/26 06:47:54;;;;;;;14.77;3.10;;;15.00;79.70;;;;;;5049741;28;20091;-90
2022/05/26 06:50:20;;;;;;;17.90;3.22;;;15.00;79.60;;;;;;5042627;28;20064;-89
2022/05/26 06:52:47;;;;;;;14.75;3.25;;;15.00;79.60;;;;;;5039448;28;20053;-90
2022/05/26 06:55:14;;;;;;;17.17;3.63;;;15.00;79.60;;;;;;5036388;28;20495;-90
2022/05/26 06:57:41;;;;;;;13.40;3.20;;;15.00;79.50;;;;;;5053030;28;20107;-89
2022/05/26 07:00:10;;;;;;;19.67;3.63;;;15.00;79.50;;;;;;5047272;28;20045;-89
2022/05/26 07:02:38;;;;;;;17.63;3.55;;;15.10;79.40;;;;;;5042083;28;20110;-90
2022/05/26 07:05:05;;;;;;;12.07;3.15;;;15.10;79.40;;;;;;5039598;28;20154;-88
2022/05/26 07:07:34;;;;;;;15.07;3.13;;;15.10;79.30;;;;;;5037350;28;20462;-88
2022/05/26 07:10:03;;;;;;;13.20;2.90;;;15.10;79.30;;;;;;5038368;28;20045;-89
2022/05/26 07:12:35;;;;;;;17.77;3.42;;;15.10;79.20;;;;;;5051479;28;20060;-89
2022/05/26 07:15:03;;;;;;;18.27;3.45;;;15.20;79.20;;;;;;5048129;28;20107;-88
2022/05/26 07:17:31;;;;;;;12.95;2.95;;;15.20;79.20;;;;;;5041957;28;20053;-90
2022/05/26 07:19:58;;;;;;;14.80;3.20;;;15.20;79.20;;;;;;5037942;28;20091;-89
2022/05/26 07:22:28;;;;;;;19.17;3.08;;;15.20;79.10;;;;;;5037211;28;20523;-89
2022/05/26 07:24:55;;;;;;;13.35;3.03;;;15.20;79.00;;;;;;5040117;28;20103;-89
2022/05/26 07:27:22;;;;;;;12.38;2.80;;;15.20;78.90;;;;;;5040503;28;20057;-89
2022/05/26 07:29:53;;;;;;;17.45;3.60;;;15.20;78.90;;;;;;5041247;28;20650;-88
2022/05/26 07:32:21;;;;;;;9.98;2.83;;;15.20;78.80;;;;;;5041208;28;20045;-90
2022/05/26 07:34:48;;;;;;;14.23;2.55;;;15.30;78.70;;;;;;5036396;28;20049;-89
2022/05/26 07:42:46;;;;;;;19.00;2.95;;;15.30;78.50;;;;;;5040972;28;20041;-90
2022/05/26 07:45:13;;;;;;;12.75;2.70;;;15.40;78.40;;;;;;5041268;28;20476;-89
2022/05/26 07:47:40;;;;;;;16.52;3.10;;;15.40;78.30;;;;;;5043637;28;20049;-88
2022/05/26 07:50:11;;;;;;;14.73;2.80;;;15.40;78.30;;;;;;5052407;28;20049;-90
2022/05/26 07:52:38;;;;;;;13.77;2.80;;;15.40;78.20;;;;;;5036256;28;20129;-90
2022/05/26 07:55:06;;;;;;;12.63;2.95;;;15.50;78.10;;;;;;5038960;28;20109;-90
2022/05/26 07:57:33;;;;;;;14.43;2.90;;;15.50;78.10;;;;;;5050813;28;20045;-90
2022/05/26 08:00:00;;;;;;;11.38;2.95;;;15.60;78.00;;;;;;5047087;28;20107;-89
2022/05/26 08:02:27;;;;;;;12.75;2.85;;;15.60;77.90;;;;;;5041230;28;20044;-89
2022/05/26 08:04:54;;;;;;;12.02;2.80;;;15.60;77.70;;;;;;5052432;28;20469;-88
2022/05/26 08:07:22;;;;;;;13.60;2.58;;;15.70;77.70;;;;;;5052527;28;20041;-89
2022/05/26 08:09:49;;;;;;;13.52;2.47;;;15.70;77.60;;;;;;5052080;28;20060;-90
2022/05/26 08:12:16;;;;;;;10.50;2.65;;;15.80;77.50;;;;;;5044437;28;20132;-89
2022/05/26 08:14:44;;;;;;;14.35;2.70;;;15.90;77.50;;;;;;5040552;28;20470;-90
2022/05/26 08:17:13;;;;;;;14.70;2.63;;;15.90;77.40;;;;;;5038750;28;20135;-89
2022/05/26 08:19:41;;;;;;;9.27;2.38;;;15.90;77.30;;;;;;5035801;28;20408;-89
2022/05/26 08:22:08;;;;;;;11.40;2.75;;;16.00;77.10;;;;;;5038108;28;20045;-90
2022/05/26 08:24:35;;;;;;;11.95;3.13;;;16.10;76.90;;;;;;5040484;28;20520;-88
2022/05/26 08:27:02;;;;;;;9.75;2.33;;;16.20;76.80;;;;;;5045958;28;20118;-90
2022/05/26 08:29:29;;;;;;;11.32;2.55;;;16.20;76.70;;;;;;5051023;28;20118;-90
2022/05/26 08:31:56;;;;;;;10.35;2.25;;;16.20;76.50;;;;;;5036322;28;20041;-88
2022/05/26 08:34:23;;;;;;;12.35;2.58;;;16.30;76.40;;;;;;5052147;28;20059;-88
2022/05/26 08:36:50;;;;;;;10.30;2.90;;;16.30;76.30;;;;;;5022334;28;20050;-89
2022/05/26 08:39:17;;;;;;;12.32;2.58;;;16.40;76.20;;;;;;5039943;28;20103;-89
2022/05/26 08:41:47;;;;;;;10.20;2.50;;;16.50;76.10;;;;;;5042747;28;20416;-89
2022/05/26 08:44:25;;;;;;;11.23;2.40;;;16.50;76.00;;;;;;5051600;28;20049;-89
2022/05/26 08:47:01;;;;;;;9.27;2.13;;;16.60;75.70;;;;;;5035248;28;20499;-89
2022/05/26 08:49:39;;;;;;;9.10;2.13;;;16.70;75.50;;;;;;5035437;28;20052;-89
2022/05/26 08:52:12;;;;;;;9.13;2.10;;;16.80;75.30;;;;;;5036176;28;20057;-90
2022/05/26 08:54:54;;;;;;;9.20;2.40;;;16.80;75.10;;;;;;5050343;28;20049;-90
2022/05/26 08:57:28;;;;;;;9.07;2.25;;;16.90;74.90;;;;;;5043606;28;20042;-90
2022/05/26 08:59:55;;;;;;;8.52;1.88;;;16.90;74.80;;;;;;5040311;28;20401;-89
2022/05/26 09:02:28;;;;;;;7.65;2.03;;;17.00;74.70;;;;;;5040224;28;20044;-91
2022/05/26 09:04:59;;;;;;;10.23;1.92;;;17.10;74.60;;;;;;5036530;28;20108;-89
2022/05/26 09:13:12;;;;;;;8.40;2.20;;;17.30;74.10;;;;;;5036435;28;20522;-91
2022/05/26 09:15:40;;;;;;;9.63;2.28;;;17.40;73.80;;;;;;5050341;28;20445;-90
2022/05/26 09:18:20;;;;;;;7.35;2.05;;;17.50;73.50;;;;;;5045109;28;20530;-91
2022/05/26 09:20:49;;;;;;;7.82;2.00;;;17.60;73.30;;;;;;5043531;28;20049;-91
2022/05/26 09:23:28;;;;;;;12.45;2.30;;;17.60;73.10;;;;;;5051376;28;20454;-91
2022/05/26 09:26:01;;;;;;;13.00;2.50;;;17.70;72.90;;;;;;5036029;28;20089;-91
2022/05/26 09:28:36;;;;;;;6.38;1.90;;;17.80;72.60;;;;;;5035746;28;20103;-93
2022/05/26 09:31:32;;;;;;;6.75;1.75;;;17.80;72.40;;;;;;5036402;28;20103;-91
2022/05/26 09:34:07;;;;;;;9.57;1.98;;;17.90;72.10;;;;;;5052047;28;20045;-92
2022/05/26 09:36:43;;;;;;;8.50;1.88;;;17.90;71.90;;;;;;5052811;28;20060;-92
2022/05/26 09:39:10;;;;;;;11.77;2.20;;;17.90;71.70;;;;;;5052296;28;20090;-92
2022/05/26 09:41:38;;;;;;;8.93;2.05;;;17.90;71.70;;;;;;5049766;28;20098;-92
2022/05/26 09:44:21;;;;;;;9.32;2.00;;;17.90;71.50;;;;;;5051711;28;20041;-91
2022/05/26 09:46:51;;;;;;;6.38;1.70;;;17.90;71.30;;;;;;5035391;28;20049;-93
2022/05/26 09:49:24;;;;;;;9.40;2.15;;;18.00;71.10;;;;;;5032174;28;20053;-92
2022/05/26 09:52:06;;;;;;;10.50;2.00;;;18.00;71.00;;;;;;5055527;28;20045;-88
2022/05/26 09:54:34;;;;;;;8.63;2.05;;;18.00;70.90;;;;;;5045536;28;20049;-92
2022/05/26 09:57:13;;;;;;;10.63;2.15;;;18.10;71.00;;;;;;5031587;28;20048;-93
2022/05/26 09:59:42;;;;;;;6.90;1.60;;;18.10;70.80;;;;;;5052386;28;20045;-91
2022/05/26 10:02:14;;;;;;;8.82;1.70;;;18.10;70.70;;;;;;5041733;28;20525;-90
2022/05/26 10:04:56;;;;;;;8.15;1.77;;;18.20;70.70;;;;;;5038430;28;20062;-92
2022/05/26 10:07:55;;;;;;;8.40;1.63;;;18.20;70.70;;;;;;5035686;28;20054;-90
2022/05/26 10:10:40;;;;;;;5.40;1.45;;;18.40;70.50;;;;;;5051507;28;20561;-91
2022/05/26 10:13:42;;;;;;;9.02;2.10;;;18.40;70.30;;;;;;5039235;28;20045;-91
2022/05/26 10:16:29;;;;;;;13.02;1.63;;;18.40;70.20;;;;;;5054243;28;20053;-92
2022/05/26 10:19:34;;;;;;;8.60;2.15;;;18.50;69.90;;;;;;5054179;28;20041;-91
2022/05/26 10:22:28;;;;;;;8.35;1.50;;;18.60;69.70;;;;;;5039484;28;20470;-91
2022/05/26 10:25:24;;;;;;;7.28;1.83;;;18.60;69.60;;;;;;5041516;28;20128;-91
2022/05/26 10:27:53;;;;;;;8.30;1.70;;;18.70;69.40;;;;;;5054058;28;20049;-90
2022/05/26 10:30:45;;;;;;;9.00;1.50;;;18.70;69.20;;;;;;5046385;28;20053;-91
2022/05/26 10:33:24;;;;;;;9.40;2.00;;;18.80;69.10;;;;;;5049363;28;20495;-90
2022/05/26 10:36:15;;;;;;;5.47;1.52;;;18.80;69.00;;;;;;5050348;28;20042;-89
2022/05/26 10:39:02;;;;;;;7.70;1.70;;;18.90;68.80;;;;;;5044958;28;20103;-89
2022/05/26 10:41:51;;;;;;;8.05;2.10;;;18.90;68.60;;;;;;5043477;28;20044;-91
2022/05/26 10:44:34;;;;;;;5.30;1.58;;;19.00;68.40;;;;;;5054048;28;20040;-88
2022/05/26 10:47:28;;;;;;;6.90;1.70;;;19.10;68.20;;;;;;5039616;28;20132;-91
2022/05/26 10:50:09;;;;;;;7.65;1.38;;;19.10;68.00;;;;;;5047458;28;20094;-91
2022/05/26 10:52:43;;;;;;;7.28;1.45;;;19.20;67.80;;;;;;5053793;28;20049;-90
2022/05/26 10:55:21;;;;;;;7.97;1.70;;;19.20;67.70;;;;;;5039564;28;20049;-93
2022/05/26 10:58:13;;;;;;;7.95;1.90;;;19.30;67.60;;;;;;5053775;28;20056;-91
2022/05/26 11:00:40;;;;;;;8.48;1.83;;;19.30;67.40;;;;;;5054615;28;20110;-91
2022/05/26 11:03:22;;;;;;;8.13;1.42;;;19.40;67.30;;;;;;5048305;28;20072;-90
2022/05/26 11:05:57;;;;;;;9.82;1.70;;;19.40;67.10;;;;;;5046282;28;20049;-90
2022/05/26 11:08:32;;;;;;;11.95;1.90;;;19.40;67.00;;;;;;5054128;28;20045;-91
2022/05/26 11:11:23;;;;;;;10.50;1.85;;;19.40;66.80;;;;;;5038978;28;20049;-92
2022/05/26 11:13:53;;;;;;;6.25;1.50;;;19.40;66.70;;;;;;4976767;28;20046;-92
2022/05/26 11:19:50;;;;;;;6.43;1.42;;;19.50;66.40;;;;;;4991723;28;20093;-93
2022/05/26 11:22:17;;;;;;;;;;;19.50;66.40;;;;;;4973937;28;20206;-92
2022/05/26 11:24:49;;;;;;;10.63;1.98;;;19.60;66.30;;;;;;4980944;28;19922;-92
2022/05/26 11:27:25;;;;;;;4.82;1.30;;;19.60;66.20;;;;;;4987283;28;20129;-90
2022/05/26 11:29:57;;;;;;;6.03;1.40;;;19.60;66.10;;;;;;4987868;28;20105;-90
2022/05/26 11:38:12;;;;;;;5.65;1.60;;;19.60;65.80;;;;;;4978270;28;20501;-91
2022/05/26 11:41:29;;;;;;;8.65;1.75;;;19.70;65.70;;;;;;4991355;28;20054;-90
2022/05/26 11:44:10;;;;;;;8.48;1.73;;;19.60;65.70;;;;;;4953938;28;20051;-93
2022/05/26 11:46:49;;;;;;;7.78;1.42;;;19.70;65.70;;;;;;4952799;29;20095;-90
2022/05/26 11:49:55;;;;;;;5.63;1.23;;;19.70;65.60;;;;;;4953373;29;20059;-91
2022/05/26 11:52:37;;;;;;;7.15;1.60;;;19.70;65.60;;;;;;4950295;29;20094;-91
2022/05/26 11:55:15;;;;;;;9.98;1.95;;;19.60;65.60;;;;;;4948586;29;20184;-91
2022/05/26 11:57:43;;;;;;;7.95;1.80;;;19.70;65.60;;;;;;4941900;29;20159;-91
2022/05/26 12:00:19;;;;;;;6.53;1.50;;;19.70;65.60;;;;;;4941727;29;20423;-90
2022/05/26 12:03:24;;;;;;;7.80;1.80;;;19.70;65.60;;;;;;4941699;29;20063;-92
2022/05/26 12:06:06;;;;;;;7.97;1.85;;;19.80;65.50;;;;;;4945324;29;20066;-92
2022/05/26 12:08:52;;;;;;;6.00;1.27;;;19.80;65.40;;;;;;4951034;29;20078;-90
2022/05/26 12:11:39;;;;;;;6.72;1.67;;;19.80;65.30;;;;;;4941339;29;20082;-92
2022/05/26 12:14:07;;;;;;;6.57;1.38;;;19.80;65.20;;;;;;4950550;28;20054;-92
2022/05/26 12:16:34;;;;;;;9.52;2.25;;;19.90;65.20;;;;;;4991624;28;20050;-92
2022/05/26 12:19:04;;;;;;;6.78;1.55;;;19.90;65.20;;;;;;4991723;28;20147;-92
2022/05/26 12:21:36;;;;;;;8.35;1.52;;;19.90;65.20;;;;;;4990976;28;20095;-93
2022/05/26 12:24:36;;;;;;;8.80;1.65;;;19.90;65.20;;;;;;4990597;28;20121;-90
2022/05/26 12:27:03;;;;;;;9.15;1.63;;;19.90;65.00;;;;;;4951855;29;20055;-92
2022/05/26 12:29:48;;;;;;;7.60;1.58;;;19.90;64.90;;;;;;4977046;28;20053;-90
2022/05/26 12:32:28;;;;;;;6.95;1.60;;;19.90;64.90;;;;;;5009209;28;20050;-91
2022/05/26 12:35:12;;;;;;;4.65;1.48;;;20.00;64.80;;;;;;4994487;28;20162;-90
2022/05/26 12:37:47;;;;;;;;;;;20.00;64.70;;;;;;5009482;28;20487;-92
2022/05/26 12:40:20;;;;;;;7.65;2.00;;;20.00;64.70;;;;;;5010319;28;19925;-92
2022/05/26 12:42:49;;;;;;;7.77;1.57;;;20.10;64.70;;;;;;5009255;28;20571;-92
2022/05/26 12:45:29;;;;;;;6.30;1.30;;;20.10;64.60;;;;;;5009017;28;20050;-91
2022/05/26 12:48:16;;;;;;;5.63;1.40;;;20.10;64.60;;;;;;5009332;28;20054;-92
2022/05/26 12:50:44;;;;;;;8.25;1.73;;;20.10;64.60;;;;;;5008649;28;20586;-91
2022/05/26 12:53:29;;;;;;;5.43;1.60;;;20.20;64.60;;;;;;5008526;28;20834;-90
2022/05/26 12:56:00;;;;;;;5.00;1.48;;;20.20;64.50;;;;;;4994341;28;20050;-92
2022/05/26 12:58:37;;;;;;;6.65;1.48;;;20.30;64.50;;;;;;5009044;28;20057;-91
2022/05/26 13:01:10;;;;;;;5.18;1.52;;;20.30;64.40;;;;;;5008380;28;20045;-92
2022/05/26 13:04:01;;;;;;;6.50;1.75;;;20.30;64.30;;;;;;5044673;28;20560;-91
2022/05/26 13:06:32;;;;;;;6.47;1.65;;;20.40;64.30;;;;;;5043347;28;20137;-91
2022/05/26 13:09:13;;;;;;;6.90;1.67;;;20.40;64.30;;;;;;5047123;28;20461;-90
2022/05/26 13:11:53;;;;;;;5.10;1.42;;;20.40;64.30;;;;;;5047853;28;20045;-91
2022/05/26 13:14:47;;;;;;;8.38;1.48;;;20.40;64.20;;;;;;5049129;28;20045;-92
2022/05/26 13:17:15;;;;;;;8.45;1.67;;;20.50;64.20;;;;;;5048028;28;20632;-91
2022/05/26 13:19:43;;;;;;;5.80;1.40;;;20.50;64.10;;;;;;5048835;28;20558;-92
2022/05/26 13:22:13;;;;;;;10.15;2.05;;;20.60;64.20;;;;;;5046470;28;20053;-92
2022/05/26 13:24:50;;;;;;;7.05;1.58;;;20.60;64.10;;;;;;5049529;28;20057;-92
2022/05/26 13:27:17;;;;;;;5.97;1.67;;;20.60;64.00;;;;;;5051311;28;20459;-91
2022/05/26 13:29:48;;;;;;;5.43;1.60;;;20.60;64.10;;;;;;5051500;28;20103;-91
2022/05/26 13:47:04;;;;;;;5.55;1.60;;;20.70;64.10;;;;;;5105488;27;20384;-85
2022/05/26 13:49:39;;;;;;;5.20;1.60;;;20.90;63.20;;;;;;5105275;28;20106;-84
2022/05/26 13:52:15;;;;;;;5.97;1.63;;;20.90;63.30;;;;;;5100864;28;20040;-84
2022/05/26 13:54:53;;;;;;;15.55;2.03;;;20.90;63.40;;;;;;5095175;28;20041;-84
2022/05/26 13:57:26;;;;;;;8.20;1.63;;;20.80;63.50;;;;;;5093773;28;20131;-84
2022/05/26 14:00:04;;;;;;;7.70;1.73;;;20.70;63.60;;;;;;5093740;28;20462;-84
2022/05/26 14:02:36;;;;;;;7.18;1.75;;;20.70;63.60;;;;;;5105090;28;20059;-84
2022/05/26 14:05:12;;;;;;;9.57;1.95;;;20.60;63.70;;;;;;5089628;28;20066;-84